Time;durP1;ratioP1;P1;durP2;ratioP2;P2;SDS_P1;SDS_P2;PMS_P1;PMS_P2;Temp;Humidity;BMP_temperature;BMP_pressure;BME280_temperature;BME280_humidity;BME280_pressure;Samples;Min_cycle;Max_cycle;Signal;HPM_P1;HPM_P2
2021/08/27 00:01:14;;;;;;;8.00;2.97;;;;;;;;;;4961036;28;20086;-89
2021/08/27 00:03:42;;;;;;;9.57;3.17;;;;;;;;;;4976459;28;20054;-89
2021/08/27 00:06:10;;;;;;;9.27;4.70;;;;;;;;;;4976455;28;20578;-89
2021/08/27 00:08:39;;;;;;;6.10;2.80;;;;;;;;;;4976248;28;20057;-88
2021/08/27 00:11:07;;;;;;;9.20;3.33;;;;;;;;;;4959576;28;20450;-89
2021/08/27 00:13:35;;;;;;;8.95;2.90;;;;;;;;;;4959268;28;20102;-90
2021/08/27 00:16:04;;;;;;;6.13;3.20;;;;;;;;;;4976389;28;20059;-89
2021/08/27 00:18:34;;;;;;;6.57;3.13;;;;;;;;;;4976168;28;20055;-90
2021/08/27 00:21:03;;;;;;;5.82;2.72;;;;;;;;;;4976904;28;20170;-89
2021/08/27 00:23:31;;;;;;;7.18;3.03;;;;;;;;;;4976604;28;20061;-90
2021/08/27 00:25:59;;;;;;;7.88;3.28;;;;;;;;;;4979966;28;20055;-89
2021/08/27 00:28:28;;;;;;;8.02;3.08;;;;;;;;;;4976249;28;20490;-89
2021/08/27 00:30:58;;;;;;;6.72;2.97;;;;;;;;;;4976626;28;20139;-89
2021/08/27 00:33:26;;;;;;;7.00;2.67;;;;;;;;;;4974907;28;20483;-89
2021/08/27 00:35:56;;;;;;;7.13;3.08;;;;;;;;;;4976538;28;20083;-91
2021/08/27 00:38:25;;;;;;;10.10;3.35;;;;;;;;;;4975590;28;20113;-89
2021/08/27 00:40:53;;;;;;;6.78;3.03;;;;;;;;;;4976617;28;20053;-89
2021/08/27 00:43:21;;;;;;;7.13;2.92;;;;;;;;;;4974599;28;20057;-89
2021/08/27 00:45:50;;;;;;;8.75;3.15;;;;;;;;;;4977152;28;20385;-90
2021/08/27 00:48:19;;;;;;;7.38;3.45;;;;;;;;;;4975285;28;20066;-90
2021/08/27 00:50:48;;;;;;;6.75;3.28;;;;;;;;;;4976267;28;20527;-90
2021/08/27 00:53:18;;;;;;;7.32;3.33;;;;;;;;;;4979981;28;20073;-90
2021/08/27 00:55:47;;;;;;;9.25;3.42;;;;;;;;;;4981668;28;20046;-90
2021/08/27 00:58:15;;;;;;;7.65;3.35;;;;;;;;;;4977708;28;20050;-89
2021/08/27 01:00:44;;;;;;;6.63;3.47;;;;;;;;;;4960236;28;20075;-89
2021/08/27 01:03:13;;;;;;;6.03;3.03;;;;;;;;;;4976737;28;20054;-89
2021/08/27 01:05:43;;;;;;;6.00;3.13;;;;;;;;;;4975785;28;20126;-89
2021/08/27 01:08:14;;;;;;;6.45;3.13;;;;;;;;;;4976212;28;20050;-90
2021/08/27 01:10:47;;;;;;;7.05;3.15;;;;;;;;;;4975702;28;20043;-89
2021/08/27 01:13:19;;;;;;;5.60;2.90;;;;;;;;;;4974684;28;20051;-89
2021/08/27 01:15:51;;;;;;;5.93;2.75;;;;;;;;;;4975316;28;20138;-90
2021/08/27 01:18:24;;;;;;;6.78;2.92;;;;;;;;;;4975776;28;20086;-89
2021/08/27 01:21:25;;;;;;;7.85;3.10;;;;;;;;;;4975105;28;20050;-90
2021/08/27 01:23:55;;;;;;;8.55;3.35;;;;;;;;;;4974383;28;20141;-89
2021/08/27 01:26:27;;;;;;;7.72;3.20;;;;;;;;;;4975780;28;20055;-89
2021/08/27 01:28:56;;;;;;;12.93;3.78;;;;;;;;;;4977291;28;20114;-90
2021/08/27 01:31:32;;;;;;;9.32;3.10;;;;;;;;;;4975368;28;20047;-90
2021/08/27 01:34:05;;;;;;;6.18;3.47;;;;;;;;;;4974469;28;20055;-90
2021/08/27 01:36:36;;;;;;;8.73;3.35;;;;;;;;;;4974644;28;20642;-90
2021/08/27 01:39:07;;;;;;;8.68;3.72;;;;;;;;;;4974445;28;20418;-90
2021/08/27 01:41:36;;;;;;;9.48;3.20;;;;;;;;;;4974511;28;20059;-90
2021/08/27 01:44:05;;;;;;;8.23;3.90;;;;;;;;;;4971839;28;20053;-88
2021/08/27 01:46:35;;;;;;;8.25;3.72;;;;;;;;;;4975124;28;20437;-89
2021/08/27 01:49:04;;;;;;;9.23;3.95;;;;;;;;;;4974501;28;20105;-88
2021/08/27 01:51:33;;;;;;;7.53;3.28;;;;;;;;;;4974586;28;20511;-89
2021/08/27 01:54:02;;;;;;;8.45;3.70;;;;;;;;;;4973838;28;20042;-89
2021/08/27 01:56:31;;;;;;;9.38;3.88;;;;;;;;;;4968843;28;20058;-88
2021/08/27 01:59:00;;;;;;;9.07;3.83;;;;;;;;;;4955807;29;20141;-89
2021/08/27 02:01:29;;;;;;;13.00;4.25;;;;;;;;;;4955406;29;20055;-89
2021/08/27 02:03:58;;;;;;;9.50;3.88;;;;;;;;;;4954253;28;20085;-89
2021/08/27 02:06:27;;;;;;;9.00;4.57;;;;;;;;;;4955289;29;20061;-88
2021/08/27 02:08:56;;;;;;;10.13;4.32;;;;;;;;;;4955061;29;20570;-88
2021/08/27 02:11:27;;;;;;;10.63;4.50;;;;;;;;;;4955773;29;20047;-90
2021/08/27 02:13:56;;;;;;;12.55;4.85;;;;;;;;;;4971956;28;20070;-88
2021/08/27 02:16:28;;;;;;;9.32;4.28;;;;;;;;;;4974121;28;20377;-88
2021/08/27 02:18:56;;;;;;;11.65;4.13;;;;;;;;;;4974450;28;20057;-89
2021/08/27 02:21:25;;;;;;;8.18;4.40;;;;;;;;;;4973921;28;20061;-88
2021/08/27 02:23:54;;;;;;;12.57;4.63;;;;;;;;;;4972841;28;20138;-89
2021/08/27 02:26:23;;;;;;;10.63;4.93;;;;;;;;;;4974168;28;20126;-88
2021/08/27 02:28:54;;;;;;;9.20;4.43;;;;;;;;;;4974385;28;20058;-89
2021/08/27 02:31:25;;;;;;;9.75;4.88;;;;;;;;;;4954636;29;20065;-90
2021/08/27 02:33:54;;;;;;;8.00;4.47;;;;;;;;;;4954711;28;20083;-89
2021/08/27 02:36:23;;;;;;;12.98;5.20;;;;;;;;;;4954704;29;20065;-91
2021/08/27 02:38:52;;;;;;;9.65;4.75;;;;;;;;;;4954991;29;20106;-90
2021/08/27 02:41:20;;;;;;;9.20;4.30;;;;;;;;;;4971453;28;20047;-91
2021/08/27 02:43:48;;;;;;;9.25;3.95;;;;;;;;;;4974319;28;20050;-90
2021/08/27 02:46:19;;;;;;;10.93;4.13;;;;;;;;;;4974330;28;20051;-90
2021/08/27 02:48:47;;;;;;;10.35;4.32;;;;;;;;;;4972923;28;20050;-90
2021/08/27 02:51:17;;;;;;;8.98;4.47;;;;;;;;;;4974612;28;20051;-89
2021/08/27 02:53:46;;;;;;;14.20;4.55;;;;;;;;;;4973245;28;20047;-90
2021/08/27 02:56:17;;;;;;;10.55;5.45;;;;;;;;;;4970530;28;20134;-89
2021/08/27 02:58:49;;;;;;;10.13;4.57;;;;;;;;;;4955481;29;20085;-89
2021/08/27 03:01:24;;;;;;;11.20;4.70;;;;;;;;;;4955511;29;20051;-90
2021/08/27 03:04:00;;;;;;;10.02;4.75;;;;;;;;;;4962447;28;20492;-89
2021/08/27 03:06:32;;;;;;;10.38;4.30;;;;;;;;;;4972901;28;20533;-88
2021/08/27 03:09:03;;;;;;;10.48;4.72;;;;;;;;;;4973658;28;20138;-87
2021/08/27 03:11:33;;;;;;;9.75;4.75;;;;;;;;;;4973303;28;20046;-87
2021/08/27 03:14:05;;;;;;;10.63;4.90;;;;;;;;;;4972644;28;20486;-88
2021/08/27 03:16:38;;;;;;;11.18;5.00;;;;;;;;;;4973110;28;20051;-88
2021/08/27 03:19:08;;;;;;;9.50;3.92;;;;;;;;;;4973656;28;20112;-87
2021/08/27 03:21:38;;;;;;;9.40;4.50;;;;;;;;;;4973566;28;20061;-88
2021/08/27 03:24:11;;;;;;;12.30;4.35;;;;;;;;;;4972491;28;20141;-89
2021/08/27 03:26:55;;;;;;;9.70;4.50;;;;;;;;;;1749129;28;10022865;-89
2021/08/27 03:29:24;;;;;;;11.48;4.65;;;;;;;;;;3943921;28;10001320;-88
2021/08/27 03:31:54;;;;;;;9.27;4.45;;;;;;;;;;4973092;28;20113;-88
2021/08/27 03:34:22;;;;;;;11.57;4.50;;;;;;;;;;4972551;28;20043;-87
2021/08/27 03:36:50;;;;;;;9.80;4.05;;;;;;;;;;4976393;28;20054;-87
2021/08/27 03:39:20;;;;;;;10.20;4.40;;;;;;;;;;4965433;28;20491;-87
2021/08/27 03:41:49;;;;;;;9.60;4.53;;;;;;;;;;4976982;28;20047;-87
2021/08/27 03:44:18;;;;;;;11.18;4.40;;;;;;;;;;4976889;28;20527;-87
2021/08/27 03:46:47;;;;;;;8.38;3.92;;;;;;;;;;4977307;28;20085;-87
2021/08/27 03:49:17;;;;;;;6.75;3.53;;;;;;;;;;4959760;28;20054;-87
2021/08/27 03:51:46;;;;;;;7.03;3.92;;;;;;;;;;4958083;29;20117;-87
2021/08/27 03:54:17;;;;;;;11.38;4.70;;;;;;;;;;4960652;28;20054;-87
2021/08/27 03:56:45;;;;;;;8.32;4.10;;;;;;;;;;4969983;28;20074;-86
2021/08/27 03:59:14;;;;;;;10.07;4.53;;;;;;;;;;4957314;29;20135;-86
2021/08/27 04:01:42;;;;;;;5.82;3.35;;;;;;;;;;4956808;29;20047;-87
2021/08/27 04:04:17;;;;;;;7.47;3.70;;;;;;;;;;4955993;28;20059;-86
2021/08/27 04:06:52;;;;;;;8.23;4.28;;;;;;;;;;4956788;29;20055;-87
2021/08/27 04:09:21;;;;;;;8.35;4.47;;;;;;;;;;4956591;29;20091;-86
2021/08/27 04:11:49;;;;;;;9.02;4.57;;;;;;;;;;4964520;28;20050;-86
2021/08/27 04:14:17;;;;;;;9.02;4.20;;;;;;;;;;4974837;28;20047;-86
2021/08/27 04:16:46;;;;;;;7.90;4.00;;;;;;;;;;4976358;28;20053;-87
2021/08/27 04:19:14;;;;;;;8.05;3.90;;;;;;;;;;4975962;28;20137;-87
2021/08/27 04:21:43;;;;;;;11.15;4.03;;;;;;;;;;4975739;28;20563;-87
2021/08/27 04:24:13;;;;;;;5.93;3.30;;;;;;;;;;4974788;28;20054;-87
2021/08/27 04:26:41;;;;;;;6.38;3.10;;;;;;;;;;4975544;28;20090;-87
2021/08/27 04:29:11;;;;;;;5.65;2.67;;;;;;;;;;4975691;28;20047;-88
2021/08/27 04:31:40;;;;;;;6.93;2.90;;;;;;;;;;4975294;28;20057;-87
2021/08/27 04:34:08;;;;;;;6.78;2.50;;;;;;;;;;4974775;28;20085;-88
2021/08/27 04:36:37;;;;;;;9.00;2.50;;;;;;;;;;4975277;28;20046;-87
2021/08/27 04:39:05;;;;;;;5.72;2.20;;;;;;;;;;4975863;28;20050;-86
2021/08/27 04:41:35;;;;;;;5.43;2.20;;;;;;;;;;4975422;28;20125;-86
2021/08/27 04:44:03;;;;;;;4.45;2.72;;;;;;;;;;4975055;28;20054;-87
2021/08/27 04:46:31;;;;;;;4.88;2.13;;;;;;;;;;4974084;28;20057;-87
2021/08/27 04:49:00;;;;;;;4.45;1.92;;;;;;;;;;4975289;28;20412;-87
2021/08/27 04:51:28;;;;;;;2.88;1.48;;;;;;;;;;4974635;28;20566;-86
2021/08/27 04:53:57;;;;;;;6.00;1.90;;;;;;;;;;4974755;28;20129;-87
2021/08/27 04:56:25;;;;;;;4.53;1.88;;;;;;;;;;4970754;28;20047;-87
2021/08/27 04:58:55;;;;;;;2.55;1.38;;;;;;;;;;4955286;29;20456;-87
2021/08/27 05:01:23;;;;;;;2.28;1.38;;;;;;;;;;4955655;29;20051;-87
2021/08/27 05:03:52;;;;;;;4.82;1.73;;;;;;;;;;4971653;28;20050;-88
2021/08/27 05:06:20;;;;;;;4.22;1.60;;;;;;;;;;4975376;28;20395;-87
2021/08/27 05:08:49;;;;;;;4.78;2.05;;;;;;;;;;4958081;28;20061;-87
2021/08/27 05:11:17;;;;;;;4.10;1.77;;;;;;;;;;4975272;28;20471;-87
2021/08/27 05:13:46;;;;;;;2.65;1.63;;;;;;;;;;4974570;28;20134;-87
2021/08/27 05:16:15;;;;;;;2.90;1.70;;;;;;;;;;4974873;28;20055;-87
2021/08/27 05:18:44;;;;;;;5.50;1.73;;;;;;;;;;4974425;28;20601;-87
2021/08/27 05:21:16;;;;;;;4.63;2.00;;;;;;;;;;4974361;28;20047;-87
2021/08/27 05:23:44;;;;;;;3.55;1.38;;;;;;;;;;4974078;28;20133;-86
2021/08/27 05:26:12;;;;;;;5.13;1.55;;;;;;;;;;4974676;28;20046;-87
2021/08/27 05:28:41;;;;;;;3.25;1.60;;;;;;;;;;4974151;28;20039;-86
2021/08/27 05:31:10;;;;;;;3.42;1.80;;;;;;;;;;4974057;28;20517;-88
2021/08/27 05:33:39;;;;;;;2.63;1.52;;;;;;;;;;4973424;28;20440;-87
2021/08/27 05:36:08;;;;;;;4.03;1.67;;;;;;;;;;4974689;28;20047;-87
2021/08/27 05:38:36;;;;;;;8.35;2.38;;;;;;;;;;4974320;28;20098;-87
2021/08/27 05:41:04;;;;;;;5.50;2.10;;;;;;;;;;4974357;28;20051;-87
2021/08/27 05:43:33;;;;;;;4.95;2.42;;;;;;;;;;4974371;28;20251;-89
2021/08/27 05:46:01;;;;;;;4.15;2.38;;;;;;;;;;4970783;28;20451;-87
2021/08/27 05:48:29;;;;;;;10.32;3.00;;;;;;;;;;4973913;28;20050;-86
2021/08/27 05:50:59;;;;;;;5.80;3.13;;;;;;;;;;4973719;28;20138;-87
2021/08/27 05:53:27;;;;;;;6.75;2.75;;;;;;;;;;4973233;28;20046;-87
2021/08/27 05:55:56;;;;;;;7.57;3.05;;;;;;;;;;4974567;28;20053;-88
2021/08/27 05:58:24;;;;;;;5.43;3.10;;;;;;;;;;4993629;28;20093;-87
2021/08/27 06:00:52;;;;;;;7.80;3.40;;;;;;;;;;4993161;28;20058;-86
2021/08/27 06:03:21;;;;;;;8.10;3.28;;;;;;;;;;4992578;28;20049;-86
2021/08/27 06:05:49;;;;;;;7.53;3.63;;;;;;;;;;4992820;28;20422;-87
2021/08/27 06:08:19;;;;;;;9.43;3.75;;;;;;;;;;4993732;28;20477;-87
2021/08/27 06:10:47;;;;;;;6.80;3.88;;;;;;;;;;4985259;28;20059;-86
2021/08/27 06:13:15;;;;;;;10.10;3.80;;;;;;;;;;4973684;28;20501;-86
2021/08/27 06:15:45;;;;;;;11.73;4.25;;;;;;;;;;4973193;28;20396;-86
2021/08/27 06:18:13;;;;;;;9.45;4.10;;;;;;;;;;4973918;28;20046;-88
2021/08/27 06:20:42;;;;;;;8.00;3.60;;;;;;;;;;4973605;28;20554;-87
2021/08/27 06:23:10;;;;;;;9.27;4.05;;;;;;;;;;4973809;28;20054;-87
2021/08/27 06:25:40;;;;;;;6.78;3.67;;;;;;;;;;4973125;28;20455;-87
2021/08/27 06:28:09;;;;;;;5.95;3.28;;;;;;;;;;4973925;28;20137;-87
2021/08/27 06:30:37;;;;;;;7.20;3.17;;;;;;;;;;4974061;28;20062;-87
2021/08/27 06:33:06;;;;;;;10.57;3.90;;;;;;;;;;4973693;28;20562;-88
2021/08/27 06:35:34;;;;;;;7.68;3.47;;;;;;;;;;4972624;28;20055;-87
2021/08/27 06:38:24;;;;;;;7.05;3.03;;;;;;;;;;4973590;28;20133;-87
2021/08/27 06:40:58;;;;;;;12.05;3.92;;;;;;;;;;4973417;28;20050;-86
2021/08/27 06:43:27;;;;;;;9.20;3.65;;;;;;;;;;4972817;28;20085;-87
2021/08/27 06:45:56;;;;;;;7.10;3.85;;;;;;;;;;4973101;28;20137;-87
2021/08/27 06:48:24;;;;;;;7.70;3.28;;;;;;;;;;4973036;28;20051;-87
2021/08/27 06:50:53;;;;;;;7.85;3.15;;;;;;;;;;4973060;28;20376;-88
2021/08/27 06:53:21;;;;;;;8.32;3.40;;;;;;;;;;4972404;28;20499;-88
2021/08/27 06:55:50;;;;;;;7.30;3.55;;;;;;;;;;4973267;28;20558;-87
2021/08/27 06:58:20;;;;;;;7.25;3.13;;;;;;;;;;4953043;29;20061;-87
2021/08/27 07:00:48;;;;;;;6.78;3.08;;;;;;;;;;4953924;28;20077;-89
2021/08/27 07:03:17;;;;;;;5.00;2.47;;;;;;;;;;4973285;28;20117;-87
2021/08/27 07:05:46;;;;;;;6.85;2.75;;;;;;;;;;4972486;28;20472;-88
2021/08/27 07:08:15;;;;;;;8.40;3.20;;;;;;;;;;4972854;28;20134;-88
2021/08/27 07:10:43;;;;;;;7.50;3.10;;;;;;;;;;4972274;28;20058;-87
2021/08/27 07:13:12;;;;;;;6.20;3.22;;;;;;;;;;4972961;28;20264;-88
2021/08/27 07:15:42;;;;;;;5.78;3.15;;;;;;;;;;4972541;28;20368;-89
2021/08/27 07:18:11;;;;;;;7.95;3.30;;;;;;;;;;4972187;28;20046;-89
2021/08/27 07:20:39;;;;;;;7.57;2.58;;;;;;;;;;4973064;28;20113;-88
2021/08/27 07:23:10;;;;;;;6.95;3.10;;;;;;;;;;4972950;28;20078;-87
2021/08/27 07:25:38;;;;;;;8.80;2.88;;;;;;;;;;4972134;28;20638;-89
2021/08/27 07:28:08;;;;;;;7.38;2.90;;;;;;;;;;4973062;28;20358;-89
2021/08/27 07:30:37;;;;;;;4.47;2.78;;;;;;;;;;4955409;28;20144;-89
2021/08/27 07:33:07;;;;;;;5.07;2.70;;;;;;;;;;4956363;28;20082;-89
2021/08/27 07:35:35;;;;;;;4.93;2.55;;;;;;;;;;4971872;28;20130;-88
2021/08/27 07:38:04;;;;;;;6.53;2.67;;;;;;;;;;4972969;28;20061;-89
2021/08/27 07:40:32;;;;;;;5.88;2.55;;;;;;;;;;4973338;28;20043;-89
2021/08/27 07:43:01;;;;;;;4.90;2.22;;;;;;;;;;4973119;28;20134;-89
2021/08/27 07:45:30;;;;;;;6.40;2.25;;;;;;;;;;4972626;28;20055;-90
2021/08/27 07:47:59;;;;;;;7.53;2.65;;;;;;;;;;4960843;28;20079;-89
2021/08/27 07:50:31;;;;;;;4.65;2.53;;;;;;;;;;4972975;28;20133;-89
2021/08/27 07:53:00;;;;;;;5.43;2.70;;;;;;;;;;4972894;28;20050;-88
2021/08/27 07:55:28;;;;;;;6.85;3.42;;;;;;;;;;4971867;28;20102;-89
2021/08/27 07:57:57;;;;;;;4.43;2.20;;;;;;;;;;4956115;28;20043;-88
2021/08/27 08:00:26;;;;;;;7.80;2.90;;;;;;;;;;4952949;29;20074;-90
2021/08/27 08:02:55;;;;;;;4.55;2.00;;;;;;;;;;4953231;29;20062;-89
2021/08/27 08:05:25;;;;;;;4.28;2.35;;;;;;;;;;4951371;28;20535;-88
2021/08/27 08:07:55;;;;;;;2.60;1.52;;;;;;;;;;4953006;29;20055;-88
2021/08/27 08:10:24;;;;;;;4.30;1.85;;;;;;;;;;4966439;28;20054;-88
2021/08/27 08:12:53;;;;;;;5.53;2.00;;;;;;;;;;4972376;28;20050;-89
2021/08/27 08:15:26;;;;;;;2.85;1.88;;;;;;;;;;4972071;28;20086;-90
2021/08/27 08:17:55;;;;;;;2.38;1.55;;;;;;;;;;4972461;28;20531;-90
2021/08/27 08:20:24;;;;;;;3.28;1.70;;;;;;;;;;4972575;28;20054;-90
2021/08/27 08:23:02;;;;;;;2.58;1.70;;;;;;;;;;4976452;28;20578;-90
2021/08/27 08:25:31;;;;;;;4.15;1.73;;;;;;;;;;4975030;28;20058;-90
2021/08/27 08:28:00;;;;;;;4.45;1.83;;;;;;;;;;4975260;28;20058;-89
2021/08/27 08:30:29;;;;;;;5.20;1.60;;;;;;;;;;4975379;28;20492;-89
2021/08/27 08:32:58;;;;;;;3.35;1.60;;;;;;;;;;4975729;28;20055;-89
2021/08/27 08:35:26;;;;;;;6.45;1.70;;;;;;;;;;4975635;28;20054;-90
2021/08/27 08:37:56;;;;;;;10.18;2.10;;;;;;;;;;4976158;28;20054;-89
2021/08/27 08:40:27;;;;;;;4.25;1.67;;;;;;;;;;4975362;28;20053;-90
2021/08/27 08:42:55;;;;;;;3.20;1.58;;;;;;;;;;4975294;28;20101;-89
2021/08/27 08:45:25;;;;;;;4.45;1.50;;;;;;;;;;4975076;28;20085;-90
2021/08/27 08:47:56;;;;;;;2.42;1.30;;;;;;;;;;4975631;28;20113;-90
2021/08/27 08:50:25;;;;;;;4.05;1.95;;;;;;;;;;4975294;28;20050;-90
2021/08/27 08:52:54;;;;;;;2.90;1.52;;;;;;;;;;4975329;28;20402;-89
2021/08/27 08:55:23;;;;;;;4.18;1.90;;;;;;;;;;4974973;28;20109;-90
2021/08/27 08:57:54;;;;;;;5.75;2.30;;;;;;;;;;4975025;28;20053;-89
2021/08/27 09:00:23;;;;;;;5.63;2.20;;;;;;;;;;4975963;28;20066;-91
2021/08/27 09:02:52;;;;;;;3.53;1.75;;;;;;;;;;4975678;28;20515;-90
2021/08/27 09:05:22;;;;;;;3.65;1.77;;;;;;;;;;4958183;28;20141;-89
2021/08/27 09:07:53;;;;;;;2.45;1.45;;;;;;;;;;4975007;28;20058;-89
2021/08/27 09:10:23;;;;;;;4.30;1.70;;;;;;;;;;4976214;28;20050;-89
2021/08/27 09:12:52;;;;;;;7.50;2.05;;;;;;;;;;4975456;28;20054;-90
2021/08/27 09:15:23;;;;;;;3.55;1.70;;;;;;;;;;4974449;28;20442;-89
2021/08/27 09:17:54;;;;;;;4.20;1.75;;;;;;;;;;4974893;28;20491;-90
2021/08/27 09:20:25;;;;;;;7.18;2.08;;;;;;;;;;4975271;28;20137;-89
2021/08/27 09:22:57;;;;;;;3.08;1.92;;;;;;;;;;4974900;28;20055;-90
2021/08/27 09:25:26;;;;;;;3.45;1.60;;;;;;;;;;4974819;28;20061;-88
2021/08/27 09:28:06;;;;;;;5.30;1.52;;;;;;;;;;4974658;28;20384;-90
2021/08/27 09:30:38;;;;;;;3.42;1.33;;;;;;;;;;4974364;28;20046;-90
2021/08/27 09:33:11;;;;;;;5.72;1.80;;;;;;;;;;4975480;28;20058;-90
2021/08/27 09:35:40;;;;;;;2.95;1.40;;;;;;;;;;4973827;28;20094;-89
2021/08/27 09:38:13;;;;;;;4.13;1.50;;;;;;;;;;4975051;28;20242;-89
2021/08/27 09:40:48;;;;;;;4.13;1.60;;;;;;;;;;4974277;28;20097;-90
2021/08/27 09:43:25;;;;;;;2.90;1.33;;;;;;;;;;4975360;28;20089;-89
2021/08/27 09:45:57;;;;;;;2.58;0.98;;;;;;;;;;4971619;28;20061;-90
2021/08/27 09:48:26;;;;;;;4.70;1.33;;;;;;;;;;4960868;28;20138;-88
2021/08/27 09:50:54;;;;;;;3.55;1.42;;;;;;;;;;4956085;28;20144;-87
2021/08/27 09:53:23;;;;;;;4.68;1.20;;;;;;;;;;4973240;28;20053;-89
2021/08/27 09:55:58;;;;;;;6.57;1.67;;;;;;;;;;4974135;28;20400;-87
2021/08/27 09:58:27;;;;;;;6.03;1.60;;;;;;;;;;4955244;29;20134;-88
2021/08/27 10:01:04;;;;;;;3.05;1.08;;;;;;;;;;4954928;29;20595;-86
2021/08/27 10:03:33;;;;;;;4.50;1.10;;;;;;;;;;4954250;28;20067;-89
2021/08/27 10:06:03;;;;;;;3.15;1.08;;;;;;;;;;4953296;29;20086;-89
2021/08/27 10:08:36;;;;;;;7.95;1.45;;;;;;;;;;4961083;28;20051;-90
2021/08/27 10:11:18;;;;;;;2.38;1.13;;;;;;;;;;4957963;28;20104;-91
2021/08/27 10:13:47;;;;;;;3.67;1.52;;;;;;;;;;4974489;28;20483;-86
2021/08/27 10:16:17;;;;;;;4.85;2.00;;;;;;;;;;4973274;28;20464;-87
2021/08/27 10:18:45;;;;;;;3.22;1.60;;;;;;;;;;4974200;28;20061;-87
2021/08/27 10:21:14;;;;;;;1.92;1.17;;;;;;;;;;4973776;28;20074;-90
2021/08/27 10:23:44;;;;;;;5.03;1.75;;;;;;;;;;4973185;28;20579;-89
2021/08/27 10:26:14;;;;;;;4.22;1.50;;;;;;;;;;4974331;28;20046;-89
2021/08/27 10:28:43;;;;;;;5.95;1.50;;;;;;;;;;4973409;28;20057;-90
2021/08/27 10:31:13;;;;;;;7.82;2.05;;;;;;;;;;4973280;28;20074;-86
2021/08/27 10:34:05;;;;;;;6.78;2.03;;;;;;;;;;4973293;28;20051;-89
2021/08/27 10:36:58;;;;;;;3.45;2.00;;;;;;;;;;4973463;28;20166;-89
2021/08/27 10:39:47;;;;;;;4.40;1.98;;;;;;;;;;4973435;28;20046;-89
2021/08/27 10:42:49;;;;;;;5.25;1.98;;;;;;;;;;4968889;28;20097;-89
2021/08/27 10:45:26;;;;;;;4.07;2.10;;;;;;;;;;4931386;29;20058;-89
2021/08/27 10:48:10;;;;;;;5.22;2.40;;;;;;;;;;4932285;29;20044;-87
2021/08/27 10:50:40;;;;;;;3.22;1.77;;;;;;;;;;4948776;28;20082;-90
2021/08/27 10:53:26;;;;;;;3.20;1.90;;;;;;;;;;4973110;28;20070;-89
2021/08/27 10:55:55;;;;;;;3.08;1.85;;;;;;;;;;4986556;28;20410;-86
2021/08/27 10:58:37;;;;;;;5.40;1.73;;;;;;;;;;4953948;29;20086;-89
2021/08/27 11:01:06;;;;;;;3.83;1.58;;;;;;;;;;4971683;28;20051;-89
2021/08/27 11:03:56;;;;;;;7.20;1.35;;;;;;;;;;4971797;28;20082;-90
2021/08/27 11:06:26;;;;;;;2.08;1.13;;;;;;;;;;4973512;28;20051;-88
2021/08/27 11:08:54;;;;;;;3.00;1.33;;;;;;;;;;4973610;28;20047;-89
2021/08/27 11:11:23;;;;;;;1.85;1.27;;;;;;;;;;4956612;28;20054;-86
2021/08/27 11:13:52;;;;;;;1.10;0.70;;;;;;;;;;4972934;28;20047;-91
2021/08/27 11:16:25;;;;;;;3.55;1.38;;;;;;;;;;4955753;28;20109;-90
2021/08/27 11:18:54;;;;;;;1.45;1.15;;;;;;;;;;4955498;28;20097;-90
2021/08/27 11:21:32;;;;;;;2.25;1.23;;;;;;;;;;4976567;28;20134;-89
2021/08/27 11:24:13;;;;;;;5.00;1.40;;;;;;;;;;4955829;28;20118;-90
2021/08/27 11:26:48;;;;;;;2.13;1.30;;;;;;;;;;4954696;28;20130;-92
2021/08/27 11:29:33;;;;;;;2.42;1.40;;;;;;;;;;4973733;28;20538;-92
2021/08/27 11:32:05;;;;;;;;;;;;;;;;;;4973414;28;20051;-91
2021/08/27 11:34:50;;;;;;;4.45;1.60;;;;;;;;;;4972346;28;19929;-88
2021/08/27 11:37:20;;;;;;;3.85;1.50;;;;;;;;;;4973229;28;20067;-89
2021/08/27 11:39:51;;;;;;;3.58;1.38;;;;;;;;;;4968294;28;20048;-91
2021/08/27 11:42:21;;;;;;;3.28;1.35;;;;;;;;;;4957015;28;20047;-91
2021/08/27 11:45:04;;;;;;;2.47;1.50;;;;;;;;;;4959648;28;20546;-91
2021/08/27 11:47:38;;;;;;;4.57;1.40;;;;;;;;;;4972737;28;20133;-90
2021/08/27 11:50:09;;;;;;;3.63;1.40;;;;;;;;;;4966333;28;20074;-89
2021/08/27 11:52:39;;;;;;;4.43;1.13;;;;;;;;;;4968274;28;20054;-90
2021/08/27 11:55:08;;;;;;;2.83;1.23;;;;;;;;;;4968618;28;20080;-89
2021/08/27 11:57:38;;;;;;;2.67;1.80;;;;;;;;;;4969087;28;20161;-91
2021/08/27 12:00:08;;;;;;;3.35;1.67;;;;;;;;;;4972238;28;20046;-90
2021/08/27 12:02:37;;;;;;;3.58;1.80;;;;;;;;;;4980817;28;20426;-91
2021/08/27 12:05:10;;;;;;;4.07;1.75;;;;;;;;;;4975444;28;20043;-91
2021/08/27 12:07:49;;;;;;;2.95;1.45;;;;;;;;;;4977861;28;20105;-91
2021/08/27 12:10:18;;;;;;;4.40;1.33;;;;;;;;;;4977124;28;20432;-89
2021/08/27 12:12:47;;;;;;;1.90;1.17;;;;;;;;;;4976793;28;20129;-88
2021/08/27 12:15:17;;;;;;;4.10;2.15;;;;;;;;;;4973519;28;20054;-87
2021/08/27 12:17:53;;;;;;;2.22;1.38;;;;;;;;;;4974309;28;20053;-90
2021/08/27 12:20:23;;;;;;;2.80;1.45;;;;;;;;;;4968291;28;20797;-91
2021/08/27 12:22:59;;;;;;;3.95;1.70;;;;;;;;;;4963719;28;20081;-86
2021/08/27 12:25:30;;;;;;;1.52;1.25;;;;;;;;;;4976655;28;20165;-91
2021/08/27 12:28:19;;;;;;;3.33;1.17;;;;;;;;;;4971302;28;20043;-90
2021/08/27 12:30:50;;;;;;;2.78;1.50;;;;;;;;;;4975542;28;20477;-91
2021/08/27 12:33:19;;;;;;;2.13;1.40;;;;;;;;;;4974063;28;20582;-89
2021/08/27 12:35:48;;;;;;;4.20;1.35;;;;;;;;;;4964212;28;20054;-90
2021/08/27 12:38:19;;;;;;;4.35;1.77;;;;;;;;;;4974284;28;20113;-88
2021/08/27 12:40:47;;;;;;;3.10;1.20;;;;;;;;;;4975167;28;20043;-91
2021/08/27 12:43:17;;;;;;;2.35;1.40;;;;;;;;;;4975340;28;20059;-91
2021/08/27 12:45:46;;;;;;;2.95;1.30;;;;;;;;;;4958919;28;20051;-90
2021/08/27 12:48:18;;;;;;;5.15;2.00;;;;;;;;;;4979912;28;20525;-88
2021/08/27 12:50:51;;;;;;;2.88;1.45;;;;;;;;;;4979018;28;20097;-88
2021/08/27 12:53:30;;;;;;;2.92;1.20;;;;;;;;;;4979058;28;20138;-87
2021/08/27 12:56:15;;;;;;;3.85;1.50;;;;;;;;;;4979053;28;20102;-89
2021/08/27 12:58:44;;;;;;;4.95;1.48;;;;;;;;;;4968378;28;20190;-88
2021/08/27 13:01:14;;;;;;;2.65;1.40;;;;;;;;;;4977037;28;20047;-89
2021/08/27 13:03:43;;;;;;;2.03;1.00;;;;;;;;;;4974475;28;20508;-89
2021/08/27 13:06:27;;;;;;;0.98;0.88;;;;;;;;;;4975041;28;20047;-91
2021/08/27 13:09:01;;;;;;;3.08;1.23;;;;;;;;;;4973644;28;20058;-90
2021/08/27 13:11:43;;;;;;;1.45;1.00;;;;;;;;;;4975118;28;20063;-89
2021/08/27 13:14:22;;;;;;;1.40;0.93;;;;;;;;;;4975355;28;20074;-87
2021/08/27 13:16:55;;;;;;;1.55;0.98;;;;;;;;;;4975052;28;20050;-89
2021/08/27 13:19:24;;;;;;;1.90;0.93;;;;;;;;;;4975380;28;20082;-89
2021/08/27 13:21:53;;;;;;;1.17;1.00;;;;;;;;;;4974768;28;20062;-90
2021/08/27 13:24:24;;;;;;;2.08;1.20;;;;;;;;;;4974316;28;20042;-90
2021/08/27 13:26:55;;;;;;;1.65;1.00;;;;;;;;;;4974369;28;20145;-89
2021/08/27 13:29:23;;;;;;;1.23;0.80;;;;;;;;;;4975100;28;20046;-89
2021/08/27 13:31:52;;;;;;;7.65;1.05;;;;;;;;;;4974343;28;20130;-90
2021/08/27 13:34:21;;;;;;;4.05;0.93;;;;;;;;;;4957461;28;20078;-89
2021/08/27 13:36:52;;;;;;;2.60;0.93;;;;;;;;;;4974367;28;20479;-89
2021/08/27 13:39:20;;;;;;;3.10;1.13;;;;;;;;;;4973673;28;20085;-90
2021/08/27 13:41:51;;;;;;;2.47;0.90;;;;;;;;;;4974268;28;20051;-87
2021/08/27 13:44:19;;;;;;;2.25;0.70;;;;;;;;;;4974100;28;20114;-87
2021/08/27 13:46:48;;;;;;;1.88;0.70;;;;;;;;;;4974859;28;20150;-89
2021/08/27 13:49:16;;;;;;;2.13;0.93;;;;;;;;;;4973141;28;20053;-88
2021/08/27 13:51:45;;;;;;;1.63;1.00;;;;;;;;;;4974343;28;20510;-90
2021/08/27 13:54:13;;;;;;;2.33;0.80;;;;;;;;;;4974111;28;20054;-87
2021/08/27 13:56:42;;;;;;;0.90;0.80;;;;;;;;;;4974716;28;20042;-88
2021/08/27 13:59:12;;;;;;;3.60;0.73;;;;;;;;;;4973845;28;20050;-87
2021/08/27 14:01:41;;;;;;;1.73;0.70;;;;;;;;;;4974155;28;20489;-86
2021/08/27 14:04:10;;;;;;;2.00;0.63;;;;;;;;;;4973463;28;20055;-88
2021/08/27 14:06:38;;;;;;;1.17;0.85;;;;;;;;;;4974260;28;20134;-87
2021/08/27 14:09:08;;;;;;;2.08;0.82;;;;;;;;;;4973610;28;20047;-88
2021/08/27 14:11:37;;;;;;;1.95;0.80;;;;;;;;;;4954872;29;20416;-88
2021/08/27 14:14:05;;;;;;;2.53;1.20;;;;;;;;;;4969409;28;20463;-89
2021/08/27 14:16:36;;;;;;;1.95;0.95;;;;;;;;;;4974114;28;20167;-89
2021/08/27 14:19:21;;;;;;;3.20;1.27;;;;;;;;;;4973776;28;20086;-90
2021/08/27 14:21:49;;;;;;;1.65;1.00;;;;;;;;;;4956894;28;20166;-87
2021/08/27 14:24:18;;;;;;;3.50;1.10;;;;;;;;;;4973008;28;20074;-88
2021/08/27 14:26:47;;;;;;;3.63;0.90;;;;;;;;;;4970117;28;20086;-89
2021/08/27 14:29:16;;;;;;;2.20;1.00;;;;;;;;;;4969974;28;20085;-88
2021/08/27 14:31:46;;;;;;;4.00;1.00;;;;;;;;;;4973019;28;20089;-87
2021/08/27 14:34:14;;;;;;;1.65;0.90;;;;;;;;;;4970635;28;20051;-87
2021/08/27 14:36:42;;;;;;;2.65;1.20;;;;;;;;;;4971139;28;20391;-88
2021/08/27 14:39:11;;;;;;;1.60;0.82;;;;;;;;;;4967940;28;20051;-88
2021/08/27 14:41:40;;;;;;;5.82;0.80;;;;;;;;;;4972585;28;20054;-89
2021/08/27 14:44:09;;;;;;;1.38;0.73;;;;;;;;;;4971697;28;20118;-85
2021/08/27 14:46:39;;;;;;;1.52;0.80;;;;;;;;;;4971970;28;20455;-86
2021/08/27 14:49:08;;;;;;;1.67;0.80;;;;;;;;;;4971102;28;20447;-86
2021/08/27 14:51:37;;;;;;;2.78;0.98;;;;;;;;;;4972102;28;20113;-84
2021/08/27 14:54:05;;;;;;;2.95;0.90;;;;;;;;;;4971054;28;20384;-85
2021/08/27 14:56:34;;;;;;;2.33;0.82;;;;;;;;;;4970170;28;20069;-87
2021/08/27 14:59:02;;;;;;;1.70;0.90;;;;;;;;;;4971916;28;20046;-86
2021/08/27 15:01:31;;;;;;;1.77;0.90;;;;;;;;;;4970242;28;20043;-87